createdAt,value
2019-05-26T00:00:03.127Z,8.07
2019-05-26T00:03:08.957Z,8.20
2019-05-26T00:06:14.350Z,11.03
2019-05-26T00:09:19.286Z,8.33
2019-05-26T00:12:24.028Z,8.33
2019-05-26T00:15:28.832Z,8.43
2019-05-26T00:18:33.704Z,7.70
2019-05-26T00:21:38.774Z,8.10
2019-05-26T00:24:43.520Z,8.63
2019-05-26T00:27:48.744Z,10.20
2019-05-26T00:30:53.809Z,8.80
2019-05-26T00:33:58.493Z,7.27
2019-05-26T00:37:03.314Z,7.10
2019-05-26T00:40:08.554Z,8.53
2019-05-26T00:43:13.365Z,10.10
2019-05-26T00:46:18.506Z,7.87
2019-05-26T00:49:23.315Z,8.13
2019-05-26T00:52:28.136Z,7.63
2019-05-26T00:55:33.635Z,8.50
2019-05-26T00:58:38.731Z,8.10
2019-05-26T01:01:43.494Z,8.10
2019-05-26T01:04:48.269Z,10.17
2019-05-26T01:08:05.877Z,7.57
2019-05-26T01:11:01.468Z,12.33
2019-05-26T01:14:06.267Z,9.30
2019-05-26T01:17:11.369Z,10.20
2019-05-26T01:20:16.718Z,8.27
2019-05-26T01:23:21.479Z,9.10
2019-05-26T01:26:27.271Z,8.80
2019-05-26T01:29:33.651Z,9.10
2019-05-26T01:32:38.481Z,7.40
2019-05-26T01:35:43.653Z,8.50
2019-05-26T01:38:49.360Z,9.40
2019-05-26T01:41:54.432Z,9.73
2019-05-26T01:44:59.428Z,7.77
2019-05-26T01:48:04.970Z,8.40
2019-05-26T01:51:09.805Z,8.43
2019-05-26T01:54:16.203Z,8.83
2019-05-26T01:57:21.619Z,12.00
2019-05-26T02:00:26.631Z,8.40
2019-05-26T02:03:31.366Z,11.13
2019-05-26T02:06:36.195Z,9.43
2019-05-26T02:09:41.561Z,8.97
2019-05-26T02:12:47.009Z,10.13
2019-05-26T02:15:51.837Z,7.57
2019-05-26T02:18:56.881Z,7.93
2019-05-26T02:22:01.903Z,8.83
2019-05-26T02:25:07.316Z,11.07
2019-05-26T02:28:12.161Z,9.10
2019-05-26T02:31:17.169Z,9.43
2019-05-26T02:34:21.903Z,10.30
2019-05-26T02:37:26.893Z,9.00
2019-05-26T02:40:31.783Z,10.67
2019-05-26T02:43:36.841Z,10.70
2019-05-26T02:46:41.679Z,9.50
2019-05-26T02:49:46.401Z,8.87
2019-05-26T02:52:52.245Z,11.67
2019-05-26T02:55:57.119Z,9.00
2019-05-26T02:59:02.215Z,10.30
2019-05-26T03:02:07.352Z,10.13
2019-05-26T03:05:12.971Z,12.37
2019-05-26T03:08:17.722Z,9.07
2019-05-26T03:11:26.232Z,9.50
2019-05-26T03:14:33.432Z,9.30
2019-05-26T03:17:40.954Z,9.40
2019-05-26T03:20:45.993Z,9.57
2019-05-26T03:23:52.273Z,9.33
2019-05-26T03:26:58.603Z,9.50
2019-05-26T03:30:03.447Z,9.20
2019-05-26T03:33:08.545Z,11.17
2019-05-26T03:36:13.587Z,12.77
2019-05-26T03:39:18.322Z,9.87
2019-05-26T03:42:23.053Z,10.20
2019-05-26T03:46:11.282Z,9.43
2019-05-26T03:49:16.293Z,9.67
2019-05-26T03:52:21.372Z,9.13
2019-05-26T03:55:26.099Z,9.87
2019-05-26T03:58:31.579Z,10.20
2019-05-26T04:01:36.679Z,8.77
2019-05-26T04:04:41.653Z,9.93
2019-05-26T04:07:47.106Z,9.13
2019-05-26T04:10:52.347Z,9.07
2019-05-26T04:13:58.714Z,9.20
2019-05-26T04:17:03.859Z,8.83
2019-05-26T04:20:09.063Z,8.97
2019-05-26T04:23:14.083Z,9.40
2019-05-26T04:26:18.853Z,8.50
2019-05-26T04:29:24.649Z,10.10
2019-05-26T04:32:29.471Z,10.70
2019-05-26T04:35:34.204Z,10.53
2019-05-26T04:38:39.213Z,7.80
2019-05-26T04:41:44.392Z,8.23
2019-05-26T04:44:49.243Z,9.10
2019-05-26T04:47:54.302Z,8.13
2019-05-26T04:50:59.130Z,9.67
2019-05-26T04:54:04.040Z,8.20
2019-05-26T04:57:09.234Z,10.67
2019-05-26T05:00:14.543Z,7.90
2019-05-26T05:03:19.326Z,7.67
2019-05-26T05:06:24.433Z,8.00
2019-05-26T05:09:29.223Z,8.00
2019-05-26T05:12:34.226Z,7.43
2019-05-26T05:15:39.336Z,7.80
2019-05-26T05:18:44.095Z,7.37
2019-05-26T05:21:49.036Z,7.03
2019-05-26T05:24:53.857Z,7.37
2019-05-26T05:27:58.701Z,7.83
2019-05-26T05:31:03.883Z,7.47
2019-05-26T05:34:08.633Z,7.93
2019-05-26T05:37:13.617Z,7.60
2019-05-26T05:40:19.170Z,7.40
2019-05-26T05:43:24.372Z,7.13
2019-05-26T05:46:29.289Z,7.80
2019-05-26T05:49:34.122Z,8.80
2019-05-26T05:52:39.205Z,7.10
2019-05-26T05:55:44.066Z,7.90
2019-05-26T05:58:48.830Z,8.93
2019-05-26T06:01:55.220Z,7.73
2019-05-26T06:05:00.053Z,8.37
2019-05-26T06:08:05.030Z,8.40
2019-05-26T06:11:16.722Z,7.90
2019-05-26T06:14:16.870Z,9.07
2019-05-26T06:17:21.644Z,8.17
2019-05-26T06:20:26.511Z,8.30
2019-05-26T06:23:31.251Z,9.00
2019-05-26T06:26:36.433Z,8.67
2019-05-26T06:29:56.008Z,8.20
2019-05-26T06:32:48.079Z,8.33
2019-05-26T06:35:52.952Z,8.83
2019-05-26T06:38:57.834Z,9.03
2019-05-26T06:42:03.147Z,9.93
2019-05-26T06:45:08.577Z,7.37
2019-05-26T06:48:14.907Z,8.23
2019-05-26T06:51:20.779Z,10.10
2019-05-26T06:54:25.600Z,7.87
2019-05-26T06:57:30.533Z,9.17
2019-05-26T07:00:35.267Z,9.10
2019-05-26T07:03:40.066Z,10.33
2019-05-26T07:06:46.221Z,8.67
2019-05-26T07:09:52.147Z,8.20
2019-05-26T07:12:58.076Z,7.60
2019-05-26T07:16:02.936Z,9.20
2019-05-26T07:19:07.762Z,8.23
2019-05-26T07:22:13.867Z,7.60
2019-05-26T07:25:18.770Z,7.43
2019-05-26T07:28:23.709Z,9.37
2019-05-26T07:31:29.212Z,8.87
2019-05-26T07:34:34.339Z,8.43
2019-05-26T07:37:40.491Z,7.77
2019-05-26T07:40:45.258Z,7.47
2019-05-26T07:43:50.118Z,7.97
2019-05-26T07:46:54.989Z,6.93
2019-05-26T07:49:59.852Z,6.00
2019-05-26T07:53:04.745Z,8.83
2019-05-26T07:56:09.787Z,7.37
2019-05-26T07:59:14.953Z,10.93
2019-05-26T08:02:20.029Z,7.53
2019-05-26T08:05:24.823Z,6.57
2019-05-26T08:08:29.965Z,7.20
2019-05-26T08:11:34.839Z,6.97
2019-05-26T08:14:39.687Z,7.90
2019-05-26T08:17:44.488Z,7.53
2019-05-26T08:20:49.661Z,9.30
2019-05-26T08:23:54.478Z,9.57
2019-05-26T08:26:59.270Z,8.47
2019-05-26T08:30:05.284Z,7.87
2019-05-26T08:33:10.010Z,11.73
2019-05-26T08:36:14.840Z,9.53
2019-05-26T08:39:19.652Z,9.93
2019-05-26T08:42:31.930Z,8.30
2019-05-26T08:45:31.266Z,7.70
2019-05-26T08:48:36.117Z,8.93
2019-05-26T08:51:41.908Z,10.40
2019-05-26T08:54:46.781Z,9.00
2019-05-26T08:57:51.782Z,8.90
2019-05-26T09:00:56.551Z,8.80
2019-05-26T09:04:01.358Z,6.87
2019-05-26T09:07:06.517Z,7.73
2019-05-26T09:10:13.070Z,9.43
2019-05-26T09:13:18.232Z,8.77
2019-05-26T09:16:26.290Z,9.07
2019-05-26T09:19:31.363Z,8.63
2019-05-26T09:22:36.875Z,7.07
2019-05-26T09:25:42.277Z,7.10
2019-05-26T09:28:47.327Z,8.13
2019-05-26T09:31:52.419Z,8.57
2019-05-26T09:34:57.286Z,7.00
2019-05-26T09:38:02.333Z,8.33
2019-05-26T09:41:07.256Z,6.83
2019-05-26T09:44:12.104Z,8.20
2019-05-26T09:47:16.910Z,7.87
2019-05-26T09:50:22.858Z,6.93
2019-05-26T09:53:28.687Z,6.90
2019-05-26T09:56:34.793Z,7.33
2019-05-26T09:59:39.846Z,5.30
2019-05-26T10:02:44.759Z,5.37
2019-05-26T10:05:49.596Z,5.10
2019-05-26T10:08:54.338Z,6.13
2019-05-26T10:12:00.794Z,5.10
2019-05-26T10:15:06.577Z,5.00
2019-05-26T10:18:12.714Z,3.87
2019-05-26T10:21:17.918Z,4.30
2019-05-26T10:24:22.716Z,6.03
2019-05-26T10:27:27.573Z,3.53
2019-05-26T10:30:32.692Z,4.17
2019-05-26T10:33:37.853Z,5.20
2019-05-26T10:36:42.689Z,3.43
2019-05-26T10:39:47.797Z,3.70
2019-05-26T10:42:52.523Z,3.13
2019-05-26T10:45:58.321Z,2.50
2019-05-26T10:49:03.208Z,3.43
2019-05-26T10:52:08.538Z,5.43
2019-05-26T10:55:13.420Z,4.60
2019-05-26T10:58:18.604Z,4.50
2019-05-26T11:01:23.738Z,5.00
2019-05-26T11:04:29.133Z,6.73
2019-05-26T11:07:33.942Z,4.77
2019-05-26T11:10:38.772Z,4.97
2019-05-26T11:13:43.831Z,7.97
2019-05-26T11:16:48.692Z,7.03
2019-05-26T11:19:53.604Z,5.73
2019-05-26T11:22:58.373Z,5.90
2019-05-26T11:26:03.549Z,5.00
2019-05-26T11:29:08.385Z,5.20
2019-05-26T11:32:13.523Z,5.00
2019-05-26T11:35:19.165Z,5.33
2019-05-26T11:38:24.465Z,4.47
2019-05-26T11:41:29.886Z,3.50
2019-05-26T11:44:35.103Z,3.37
2019-05-26T11:47:39.833Z,3.70
2019-05-26T11:50:44.693Z,3.33
2019-05-26T11:53:49.773Z,4.17
2019-05-26T11:56:54.557Z,4.17
2019-05-26T12:00:01.044Z,2.67
2019-05-26T12:03:06.254Z,3.20
2019-05-26T12:06:11.257Z,3.10
2019-05-26T12:09:16.076Z,2.73
2019-05-26T12:12:20.866Z,3.77
2019-05-26T12:15:26.978Z,3.00
2019-05-26T12:18:31.786Z,3.43
2019-05-26T12:21:36.949Z,3.73
2019-05-26T12:24:42.176Z,5.80
2019-05-26T12:27:47.068Z,3.30
2019-05-26T12:30:51.794Z,3.97
2019-05-26T12:33:56.586Z,4.37
2019-05-26T12:37:01.655Z,3.70
2019-05-26T12:40:07.025Z,4.43
2019-05-26T12:43:12.241Z,3.43
2019-05-26T12:46:17.081Z,3.43
2019-05-26T12:49:21.873Z,2.87
2019-05-26T12:52:27.874Z,3.10
2019-05-26T12:55:33.673Z,3.23
2019-05-26T12:58:38.534Z,2.20
2019-05-26T13:01:43.739Z,2.30
2019-05-26T13:04:48.506Z,4.43
2019-05-26T13:07:53.397Z,3.97
2019-05-26T13:10:58.231Z,2.70
2019-05-26T13:14:03.253Z,2.07
2019-05-26T13:17:08.628Z,2.40
2019-05-26T13:20:14.870Z,3.10
2019-05-26T13:23:19.801Z,2.00
2019-05-26T13:26:24.938Z,7.00
2019-05-26T13:29:28.552Z,3.57
2019-05-26T13:32:33.211Z,3.73
2019-05-26T13:35:37.988Z,2.13
2019-05-26T13:38:42.790Z,3.13
2019-05-26T13:41:47.861Z,2.10
2019-05-26T13:44:52.922Z,1.83
2019-05-26T13:47:57.770Z,3.97
2019-05-26T13:51:02.725Z,2.13
2019-05-26T13:54:08.104Z,1.80
2019-05-26T13:57:12.911Z,2.47
2019-05-26T14:00:18.511Z,2.30
2019-05-26T14:03:24.279Z,2.47
2019-05-26T14:06:29.225Z,2.00
2019-05-26T14:09:34.369Z,2.57
2019-05-26T14:12:39.285Z,2.20
2019-05-26T14:15:44.107Z,2.20
2019-05-26T14:18:49.516Z,2.10
2019-05-26T14:21:54.667Z,2.10
2019-05-26T14:24:59.895Z,1.90
2019-05-26T14:28:05.258Z,2.10
2019-05-26T14:31:10.050Z,5.50
2019-05-26T14:34:14.780Z,2.83
2019-05-26T14:37:19.541Z,2.23
2019-05-26T14:40:24.414Z,2.27
2019-05-26T14:43:29.624Z,2.10
2019-05-26T14:46:34.706Z,2.23
2019-05-26T14:49:39.975Z,3.00
2019-05-26T14:52:44.841Z,2.10
2019-05-26T14:55:49.710Z,2.30
2019-05-26T14:58:54.550Z,3.53
2019-05-26T15:01:59.485Z,2.07
2019-05-26T15:05:04.941Z,1.90
2019-05-26T15:08:09.697Z,2.37
2019-05-26T15:11:14.723Z,2.03
2019-05-26T15:14:19.538Z,2.63
2019-05-26T15:17:24.855Z,2.77
2019-05-26T15:20:29.759Z,2.40
2019-05-26T15:23:34.509Z,2.40
2019-05-26T15:26:42.400Z,2.13
2019-05-26T15:29:47.216Z,2.83
2019-05-26T15:32:52.060Z,2.30
2019-05-26T15:35:56.949Z,2.23
2019-05-26T15:39:01.808Z,2.23
2019-05-26T15:42:08.502Z,2.77
2019-05-26T15:45:16.186Z,2.20
2019-05-26T15:48:20.988Z,2.47
2019-05-26T15:51:26.136Z,3.30
2019-05-26T15:54:30.988Z,2.53
2019-05-26T15:57:36.133Z,3.77
2019-05-26T16:00:41.220Z,2.57
2019-05-26T16:03:47.262Z,2.60
2019-05-26T16:06:52.364Z,3.23
2019-05-26T16:09:57.328Z,2.83
2019-05-26T16:13:02.125Z,2.70
2019-05-26T16:16:06.915Z,2.70
2019-05-26T16:19:11.814Z,5.23
2019-05-26T16:22:17.100Z,2.60
2019-05-26T16:25:22.136Z,2.77
2019-05-26T16:28:27.224Z,2.90
2019-05-26T16:31:32.275Z,2.50
2019-05-26T16:34:37.263Z,3.37
2019-05-26T16:37:42.056Z,2.60
2019-05-26T16:40:46.957Z,2.50
2019-05-26T16:43:51.841Z,3.17
2019-05-26T16:46:57.161Z,4.30
2019-05-26T16:50:01.942Z,2.40
2019-05-26T16:53:06.670Z,3.67
2019-05-26T16:56:11.573Z,2.23
2019-05-26T16:59:16.618Z,2.80
2019-05-26T17:02:21.375Z,2.67
2019-05-26T17:05:26.249Z,2.10
2019-05-26T17:08:31.207Z,2.27
2019-05-26T17:11:37.290Z,2.70
2019-05-26T17:14:42.118Z,2.23
2019-05-26T17:17:47.130Z,2.40
2019-05-26T17:20:51.941Z,2.60
2019-05-26T17:23:56.910Z,2.60
2019-05-26T17:27:01.709Z,3.00
2019-05-26T17:30:07.011Z,1.87
2019-05-26T17:33:11.979Z,2.20
2019-05-26T17:36:16.778Z,1.80
2019-05-26T17:39:22.036Z,1.70
2019-05-26T17:42:27.211Z,1.73
2019-05-26T17:45:32.513Z,1.50
2019-05-26T17:48:37.364Z,1.60
2019-05-26T17:51:42.538Z,1.40
2019-05-26T17:54:47.315Z,1.37
2019-05-26T17:57:52.191Z,2.17
2019-05-26T18:00:57.063Z,2.27
2019-05-26T18:04:01.889Z,3.23
2019-05-26T18:07:07.205Z,1.40
2019-05-26T18:10:13.223Z,1.30
2019-05-26T18:13:17.992Z,2.10
2019-05-26T18:16:22.775Z,1.50
2019-05-26T18:19:29.766Z,1.33
2019-05-26T18:22:34.495Z,1.50
2019-05-26T18:25:40.061Z,2.27
2019-05-26T18:28:44.998Z,1.90
2019-05-26T18:31:49.858Z,1.23
2019-05-26T18:34:54.875Z,2.83
2019-05-26T18:38:00.549Z,1.63
2019-05-26T18:41:05.588Z,1.23
2019-05-26T18:44:10.422Z,1.50
2019-05-26T18:47:15.414Z,2.30
2019-05-26T18:50:20.292Z,1.60
2019-05-26T18:53:25.097Z,2.20
2019-05-26T18:56:30.557Z,1.00
2019-05-26T18:59:35.401Z,1.30
2019-05-26T19:02:40.265Z,1.40
2019-05-26T19:05:45.094Z,1.63
2019-05-26T19:08:50.247Z,1.77
2019-05-26T19:11:55.570Z,3.37
2019-05-26T19:15:01.362Z,1.53
2019-05-26T19:18:19.440Z,1.80
2019-05-26T19:21:14.199Z,2.00
2019-05-26T19:24:18.964Z,1.80
2019-05-26T19:27:23.848Z,2.60
2019-05-26T19:30:28.914Z,3.13
2019-05-26T19:33:33.685Z,2.60
2019-05-26T19:36:38.559Z,1.80
2019-05-26T19:39:43.365Z,1.53
2019-05-26T19:42:49.444Z,2.20
2019-05-26T19:45:54.704Z,3.83
2019-05-26T19:48:59.463Z,1.63
2019-05-26T19:52:04.414Z,3.90
2019-05-26T19:55:10.207Z,4.23
2019-05-26T19:58:15.118Z,1.50
2019-05-26T20:01:19.922Z,2.40
2019-05-26T20:04:25.071Z,1.60
2019-05-26T20:07:29.986Z,2.30
2019-05-26T20:10:35.483Z,2.80
2019-05-26T20:13:40.447Z,1.50
2019-05-26T20:16:45.305Z,1.50
2019-05-26T20:19:50.214Z,2.17
2019-05-26T20:22:55.047Z,1.30
2019-05-26T20:26:00.089Z,1.93
2019-05-26T20:29:05.029Z,4.87
2019-05-26T20:32:09.972Z,1.90
2019-05-26T20:35:15.282Z,2.40
2019-05-26T20:38:20.444Z,2.43
2019-05-26T20:41:25.327Z,4.33
2019-05-26T20:44:30.652Z,3.10
2019-05-26T20:47:35.811Z,4.90
2019-05-26T20:50:40.850Z,2.00
2019-05-26T20:53:46.535Z,3.67
2019-05-26T20:56:51.630Z,1.77
2019-05-26T20:59:56.480Z,1.60
2019-05-26T21:03:01.621Z,2.67
2019-05-26T21:06:06.533Z,2.87
2019-05-26T21:09:11.768Z,4.33
2019-05-26T21:12:16.547Z,2.33
2019-05-26T21:15:21.457Z,3.67
2019-05-26T21:18:28.670Z,2.67
2019-05-26T21:21:34.168Z,1.73
2019-05-26T21:24:38.956Z,2.90
2019-05-26T21:27:43.768Z,3.87
2019-05-26T21:30:49.044Z,2.23
2019-05-26T21:33:53.894Z,2.10
2019-05-26T21:36:58.967Z,1.77
2019-05-26T21:40:04.796Z,2.60
2019-05-26T21:43:09.923Z,1.90
2019-05-26T21:46:15.033Z,2.87
2019-05-26T21:49:21.105Z,2.70
2019-05-26T21:52:25.907Z,2.30
2019-05-26T21:55:30.766Z,2.93
2019-05-26T21:58:35.528Z,2.40
2019-05-26T22:01:41.048Z,2.33
2019-05-26T22:04:46.150Z,2.30
2019-05-26T22:07:51.206Z,3.23
2019-05-26T22:10:55.948Z,4.43
2019-05-26T22:14:01.070Z,2.70
2019-05-26T22:17:06.144Z,2.90
2019-05-26T22:20:11.472Z,3.63
2019-05-26T22:23:16.593Z,4.27
2019-05-26T22:26:21.615Z,3.17
2019-05-26T22:29:26.452Z,2.20
2019-05-26T22:32:31.169Z,2.23
2019-05-26T22:35:36.566Z,2.87
2019-05-26T22:38:41.345Z,2.40
2019-05-26T22:41:46.383Z,2.27
2019-05-26T22:44:51.201Z,2.50
2019-05-26T22:47:55.926Z,2.60
2019-05-26T22:51:01.168Z,2.00
2019-05-26T22:54:05.995Z,3.03
2019-05-26T22:57:10.879Z,2.10
2019-05-26T23:00:16.100Z,3.53
2019-05-26T23:03:21.206Z,1.90
2019-05-26T23:06:25.945Z,2.43
2019-05-26T23:09:30.708Z,4.17
2019-05-26T23:12:35.502Z,2.40
2019-05-26T23:15:40.486Z,2.00
2019-05-26T23:18:46.288Z,2.70
2019-05-26T23:21:51.401Z,3.40
2019-05-26T23:24:56.153Z,2.20
2019-05-26T23:28:00.890Z,2.70
2019-05-26T23:31:06.129Z,2.70
2019-05-26T23:34:11.200Z,2.57
2019-05-26T23:37:16.271Z,3.10
2019-05-26T23:40:20.992Z,3.23
2019-05-26T23:43:26.199Z,2.20
2019-05-26T23:46:30.965Z,2.40
2019-05-26T23:49:35.996Z,4.10
2019-05-26T23:52:40.753Z,3.07
2019-05-26T23:55:45.753Z,2.50
2019-05-26T23:58:50.511Z,2.70
